sensor_id;sensor_type;location;lat;lon;timestamp;P1;durP1;ratioP1;P2;durP2;ratioP2
71104;SDS011;58760;48.716;8.962;2023-05-23T00:00:56;32.92;;;21.10;;
71104;SDS011;58760;48.716;8.962;2023-05-23T00:03:22;30.83;;;21.20;;
71104;SDS011;58760;48.716;8.962;2023-05-23T00:05:48;35.42;;;21.27;;
71104;SDS011;58760;48.716;8.962;2023-05-23T00:08:15;33.28;;;20.83;;
71104;SDS011;58760;48.716;8.962;2023-05-23T00:13:06;41.58;;;21.85;;
71104;SDS011;58760;48.716;8.962;2023-05-23T00:15:34;38.97;;;22.05;;
71104;SDS011;58760;48.716;8.962;2023-05-23T00:18:01;42.55;;;23.33;;
71104;SDS011;58760;48.716;8.962;2023-05-23T00:20:27;43.50;;;24.13;;
71104;SDS011;58760;48.716;8.962;2023-05-23T00:22:53;42.55;;;23.73;;
71104;SDS011;58760;48.716;8.962;2023-05-23T00:25:18;46.35;;;27.65;;
71104;SDS011;58760;48.716;8.962;2023-05-23T00:27:46;48.58;;;26.20;;
71104;SDS011;58760;48.716;8.962;2023-05-23T00:30:11;45.92;;;26.02;;
71104;SDS011;58760;48.716;8.962;2023-05-23T00:32:36;46.35;;;26.10;;
71104;SDS011;58760;48.716;8.962;2023-05-23T00:35:02;44.67;;;26.38;;
71104;SDS011;58760;48.716;8.962;2023-05-23T00:37:27;46.28;;;27.10;;
71104;SDS011;58760;48.716;8.962;2023-05-23T00:39:53;54.22;;;31.75;;
71104;SDS011;58760;48.716;8.962;2023-05-23T00:42:18;55.80;;;29.25;;
71104;SDS011;58760;48.716;8.962;2023-05-23T00:44:43;54.78;;;31.80;;
71104;SDS011;58760;48.716;8.962;2023-05-23T00:47:09;55.13;;;34.30;;
71104;SDS011;58760;48.716;8.962;2023-05-23T00:49:37;60.13;;;32.80;;
71104;SDS011;58760;48.716;8.962;2023-05-23T00:52:03;67.82;;;36.45;;
71104;SDS011;58760;48.716;8.962;2023-05-23T00:54:29;63.70;;;36.55;;
71104;SDS011;58760;48.716;8.962;2023-05-23T00:56:57;68.93;;;35.83;;
71104;SDS011;58760;48.716;8.962;2023-05-23T00:59:23;60.72;;;33.25;;
71104;SDS011;58760;48.716;8.962;2023-05-23T01:01:50;61.45;;;33.03;;
71104;SDS011;58760;48.716;8.962;2023-05-23T01:04:17;60.67;;;33.53;;
71104;SDS011;58760;48.716;8.962;2023-05-23T01:06:44;62.47;;;32.58;;
71104;SDS011;58760;48.716;8.962;2023-05-23T01:09:11;57.97;;;32.33;;
71104;SDS011;58760;48.716;8.962;2023-05-23T01:11:41;61.15;;;32.65;;
71104;SDS011;58760;48.716;8.962;2023-05-23T01:14:11;61.83;;;34.17;;
71104;SDS011;58760;48.716;8.962;2023-05-23T01:16:46;56.60;;;30.98;;
71104;SDS011;58760;48.716;8.962;2023-05-23T01:22:05;58.13;;;31.75;;
71104;SDS011;58760;48.716;8.962;2023-05-23T01:27:10;67.88;;;33.90;;
71104;SDS011;58760;48.716;8.962;2023-05-23T01:29:47;66.07;;;36.28;;
71104;SDS011;58760;48.716;8.962;2023-05-23T01:32:18;68.90;;;35.47;;
71104;SDS011;58760;48.716;8.962;2023-05-23T01:34:47;66.80;;;36.33;;
71104;SDS011;58760;48.716;8.962;2023-05-23T01:37:16;65.30;;;36.15;;
71104;SDS011;58760;48.716;8.962;2023-05-23T01:39:43;65.95;;;36.60;;
71104;SDS011;58760;48.716;8.962;2023-05-23T01:42:09;74.57;;;42.03;;
71104;SDS011;58760;48.716;8.962;2023-05-23T01:44:34;76.32;;;39.28;;
71104;SDS011;58760;48.716;8.962;2023-05-23T01:47:04;72.47;;;40.72;;
71104;SDS011;58760;48.716;8.962;2023-05-23T01:49:32;81.07;;;40.67;;
71104;SDS011;58760;48.716;8.962;2023-05-23T01:51:59;75.20;;;40.72;;
71104;SDS011;58760;48.716;8.962;2023-05-23T01:54:26;83.40;;;43.85;;
71104;SDS011;58760;48.716;8.962;2023-05-23T01:56:54;74.55;;;41.65;;
71104;SDS011;58760;48.716;8.962;2023-05-23T01:59:23;75.65;;;41.75;;
71104;SDS011;58760;48.716;8.962;2023-05-23T02:01:48;80.95;;;43.85;;
71104;SDS011;58760;48.716;8.962;2023-05-23T02:04:14;84.13;;;45.53;;
71104;SDS011;58760;48.716;8.962;2023-05-23T02:06:40;79.30;;;43.10;;
71104;SDS011;58760;48.716;8.962;2023-05-23T02:09:06;85.95;;;45.83;;
71104;SDS011;58760;48.716;8.962;2023-05-23T02:11:32;86.57;;;43.97;;
71104;SDS011;58760;48.716;8.962;2023-05-23T02:13:58;85.70;;;45.47;;
71104;SDS011;58760;48.716;8.962;2023-05-23T02:16:23;93.15;;;46.25;;
71104;SDS011;58760;48.716;8.962;2023-05-23T02:18:50;83.93;;;48.20;;
71104;SDS011;58760;48.716;8.962;2023-05-23T02:21:16;84.97;;;44.95;;
71104;SDS011;58760;48.716;8.962;2023-05-23T02:23:42;80.30;;;42.97;;
71104;SDS011;58760;48.716;8.962;2023-05-23T02:26:07;86.30;;;46.13;;
71104;SDS011;58760;48.716;8.962;2023-05-23T02:28:32;77.10;;;44.47;;
71104;SDS011;58760;48.716;8.962;2023-05-23T02:30:58;81.38;;;45.17;;
71104;SDS011;58760;48.716;8.962;2023-05-23T02:33:24;81.47;;;45.80;;
71104;SDS011;58760;48.716;8.962;2023-05-23T02:35:49;80.97;;;47.55;;
71104;SDS011;58760;48.716;8.962;2023-05-23T02:38:15;81.93;;;43.80;;
71104;SDS011;58760;48.716;8.962;2023-05-23T02:40:41;66.68;;;38.75;;
71104;SDS011;58760;48.716;8.962;2023-05-23T02:43:06;72.47;;;41.20;;
71104;SDS011;58760;48.716;8.962;2023-05-23T02:45:32;74.10;;;42.20;;
71104;SDS011;58760;48.716;8.962;2023-05-23T02:47:57;80.53;;;46.80;;
71104;SDS011;58760;48.716;8.962;2023-05-23T02:50:22;76.38;;;43.05;;
71104;SDS011;58760;48.716;8.962;2023-05-23T02:52:48;71.00;;;39.90;;
71104;SDS011;58760;48.716;8.962;2023-05-23T02:55:13;66.85;;;39.58;;
71104;SDS011;58760;48.716;8.962;2023-05-23T02:57:38;70.50;;;40.90;;
71104;SDS011;58760;48.716;8.962;2023-05-23T03:00:04;72.47;;;40.70;;
71104;SDS011;58760;48.716;8.962;2023-05-23T03:02:30;76.00;;;42.83;;
71104;SDS011;58760;48.716;8.962;2023-05-23T03:04:56;72.80;;;42.20;;
71104;SDS011;58760;48.716;8.962;2023-05-23T03:07:21;70.32;;;41.67;;
71104;SDS011;58760;48.716;8.962;2023-05-23T03:09:47;77.70;;;42.35;;
71104;SDS011;58760;48.716;8.962;2023-05-23T03:12:12;72.28;;;41.03;;
71104;SDS011;58760;48.716;8.962;2023-05-23T03:14:38;71.78;;;40.67;;
71104;SDS011;58760;48.716;8.962;2023-05-23T03:17:03;76.50;;;43.50;;
71104;SDS011;58760;48.716;8.962;2023-05-23T03:19:29;74.53;;;43.60;;
71104;SDS011;58760;48.716;8.962;2023-05-23T03:21:54;70.22;;;40.50;;
71104;SDS011;58760;48.716;8.962;2023-05-23T03:24:20;77.20;;;42.10;;
71104;SDS011;58760;48.716;8.962;2023-05-23T03:26:45;77.80;;;43.33;;
71104;SDS011;58760;48.716;8.962;2023-05-23T03:29:10;81.30;;;43.90;;
71104;SDS011;58760;48.716;8.962;2023-05-23T03:31:36;79.78;;;43.97;;
71104;SDS011;58760;48.716;8.962;2023-05-23T03:34:02;82.57;;;45.85;;
71104;SDS011;58760;48.716;8.962;2023-05-23T03:36:29;74.28;;;40.17;;
71104;SDS011;58760;48.716;8.962;2023-05-23T03:38:57;61.65;;;37.92;;
71104;SDS011;58760;48.716;8.962;2023-05-23T03:41:22;72.68;;;41.80;;
71104;SDS011;58760;48.716;8.962;2023-05-23T03:43:48;70.55;;;41.63;;
71104;SDS011;58760;48.716;8.962;2023-05-23T03:46:14;72.88;;;40.60;;
71104;SDS011;58760;48.716;8.962;2023-05-23T03:48:39;61.15;;;38.33;;
71104;SDS011;58760;48.716;8.962;2023-05-23T03:51:05;72.90;;;41.25;;
71104;SDS011;58760;48.716;8.962;2023-05-23T03:53:30;66.30;;;39.95;;
71104;SDS011;58760;48.716;8.962;2023-05-23T03:55:55;72.85;;;41.78;;
71104;SDS011;58760;48.716;8.962;2023-05-23T03:58:21;68.97;;;40.35;;
71104;SDS011;58760;48.716;8.962;2023-05-23T04:00:46;64.60;;;39.13;;
71104;SDS011;58760;48.716;8.962;2023-05-23T04:03:12;62.00;;;38.00;;
71104;SDS011;58760;48.716;8.962;2023-05-23T04:05:41;63.90;;;40.40;;
71104;SDS011;58760;48.716;8.962;2023-05-23T04:08:07;68.65;;;42.78;;
71104;SDS011;58760;48.716;8.962;2023-05-23T04:12:59;65.13;;;37.60;;
71104;SDS011;58760;48.716;8.962;2023-05-23T04:15:24;62.90;;;38.63;;
71104;SDS011;58760;48.716;8.962;2023-05-23T04:17:49;60.78;;;38.03;;
71104;SDS011;58760;48.716;8.962;2023-05-23T04:20:15;60.92;;;39.70;;
71104;SDS011;58760;48.716;8.962;2023-05-23T04:22:41;60.85;;;38.60;;
71104;SDS011;58760;48.716;8.962;2023-05-23T04:25:06;66.85;;;40.00;;
71104;SDS011;58760;48.716;8.962;2023-05-23T04:27:33;63.22;;;40.55;;
71104;SDS011;58760;48.716;8.962;2023-05-23T04:29:59;60.42;;;39.10;;
71104;SDS011;58760;48.716;8.962;2023-05-23T04:32:24;59.38;;;38.28;;
71104;SDS011;58760;48.716;8.962;2023-05-23T04:37:16;58.50;;;35.53;;
71104;SDS011;58760;48.716;8.962;2023-05-23T04:39:46;58.10;;;38.00;;
71104;SDS011;58760;48.716;8.962;2023-05-23T04:42:12;59.10;;;37.63;;
71104;SDS011;58760;48.716;8.962;2023-05-23T04:44:37;60.63;;;38.40;;
71104;SDS011;58760;48.716;8.962;2023-05-23T04:47:03;59.65;;;39.25;;
71104;SDS011;58760;48.716;8.962;2023-05-23T04:49:28;59.40;;;38.47;;
71104;SDS011;58760;48.716;8.962;2023-05-23T04:51:54;66.03;;;44.22;;
71104;SDS011;58760;48.716;8.962;2023-05-23T04:54:19;65.95;;;42.38;;
71104;SDS011;58760;48.716;8.962;2023-05-23T04:56:45;62.47;;;39.30;;
71104;SDS011;58760;48.716;8.962;2023-05-23T04:59:11;59.47;;;39.65;;
71104;SDS011;58760;48.716;8.962;2023-05-23T05:01:37;70.07;;;43.10;;
71104;SDS011;58760;48.716;8.962;2023-05-23T05:04:05;75.15;;;47.13;;
71104;SDS011;58760;48.716;8.962;2023-05-23T05:06:31;63.63;;;43.33;;
71104;SDS011;58760;48.716;8.962;2023-05-23T05:08:56;61.40;;;44.55;;
71104;SDS011;58760;48.716;8.962;2023-05-23T05:11:22;61.92;;;43.30;;
71104;SDS011;58760;48.716;8.962;2023-05-23T05:13:47;60.72;;;42.03;;
71104;SDS011;58760;48.716;8.962;2023-05-23T05:16:12;66.35;;;44.88;;
71104;SDS011;58760;48.716;8.962;2023-05-23T05:18:38;61.53;;;42.67;;
71104;SDS011;58760;48.716;8.962;2023-05-23T05:21:04;66.05;;;43.60;;
71104;SDS011;58760;48.716;8.962;2023-05-23T05:25:57;65.32;;;42.72;;
71104;SDS011;58760;48.716;8.962;2023-05-23T05:28:22;62.42;;;42.97;;
71104;SDS011;58760;48.716;8.962;2023-05-23T05:30:48;68.43;;;45.50;;
71104;SDS011;58760;48.716;8.962;2023-05-23T05:33:18;59.22;;;43.38;;
71104;SDS011;58760;48.716;8.962;2023-05-23T05:35:49;70.28;;;42.95;;
71104;SDS011;58760;48.716;8.962;2023-05-23T05:38:16;60.10;;;41.75;;
71104;SDS011;58760;48.716;8.962;2023-05-23T05:40:41;61.97;;;44.22;;
71104;SDS011;58760;48.716;8.962;2023-05-23T05:43:07;64.32;;;45.08;;
71104;SDS011;58760;48.716;8.962;2023-05-23T05:45:32;60.00;;;42.00;;
71104;SDS011;58760;48.716;8.962;2023-05-23T05:47:58;59.20;;;41.25;;
71104;SDS011;58760;48.716;8.962;2023-05-23T05:50:23;68.30;;;45.92;;
71104;SDS011;58760;48.716;8.962;2023-05-23T05:52:49;59.05;;;41.35;;
71104;SDS011;58760;48.716;8.962;2023-05-23T05:55:14;61.88;;;43.17;;
71104;SDS011;58760;48.716;8.962;2023-05-23T05:57:39;59.20;;;41.45;;
71104;SDS011;58760;48.716;8.962;2023-05-23T06:02:42;58.58;;;40.28;;
71104;SDS011;58760;48.716;8.962;2023-05-23T06:05:11;59.42;;;42.63;;
71104;SDS011;58760;48.716;8.962;2023-05-23T06:07:37;59.03;;;44.50;;
71104;SDS011;58760;48.716;8.962;2023-05-23T06:10:03;62.58;;;41.97;;
71104;SDS011;58760;48.716;8.962;2023-05-23T06:12:29;58.22;;;42.17;;
71104;SDS011;58760;48.716;8.962;2023-05-23T06:14:54;64.57;;;46.03;;
71104;SDS011;58760;48.716;8.962;2023-05-23T06:17:19;55.90;;;39.55;;
71104;SDS011;58760;48.716;8.962;2023-05-23T06:19:45;58.15;;;41.33;;
71104;SDS011;58760;48.716;8.962;2023-05-23T06:22:10;56.75;;;41.50;;
71104;SDS011;58760;48.716;8.962;2023-05-23T06:24:36;60.72;;;42.42;;
71104;SDS011;58760;48.716;8.962;2023-05-23T06:27:01;55.72;;;41.33;;
71104;SDS011;58760;48.716;8.962;2023-05-23T06:29:27;54.20;;;38.70;;
71104;SDS011;58760;48.716;8.962;2023-05-23T06:31:52;58.30;;;40.63;;
71104;SDS011;58760;48.716;8.962;2023-05-23T06:34:20;55.47;;;37.25;;
71104;SDS011;58760;48.716;8.962;2023-05-23T06:36:46;55.60;;;38.65;;
71104;SDS011;58760;48.716;8.962;2023-05-23T06:39:12;47.75;;;35.08;;
71104;SDS011;58760;48.716;8.962;2023-05-23T06:41:38;47.83;;;35.75;;
71104;SDS011;58760;48.716;8.962;2023-05-23T06:44:04;51.35;;;34.67;;
71104;SDS011;58760;48.716;8.962;2023-05-23T06:46:29;45.75;;;36.10;;
71104;SDS011;58760;48.716;8.962;2023-05-23T06:48:55;45.67;;;34.25;;
71104;SDS011;58760;48.716;8.962;2023-05-23T06:51:20;49.58;;;34.63;;
71104;SDS011;58760;48.716;8.962;2023-05-23T06:53:46;44.47;;;31.65;;
71104;SDS011;58760;48.716;8.962;2023-05-23T06:56:12;44.17;;;32.30;;
71104;SDS011;58760;48.716;8.962;2023-05-23T06:58:37;48.72;;;35.08;;
71104;SDS011;58760;48.716;8.962;2023-05-23T07:01:03;45.85;;;34.90;;
71104;SDS011;58760;48.716;8.962;2023-05-23T07:03:28;45.17;;;35.67;;
71104;SDS011;58760;48.716;8.962;2023-05-23T07:05:53;49.05;;;34.00;;
71104;SDS011;58760;48.716;8.962;2023-05-23T07:08:19;43.88;;;31.98;;
71104;SDS011;58760;48.716;8.962;2023-05-23T07:10:45;39.45;;;30.20;;
71104;SDS011;58760;48.716;8.962;2023-05-23T07:13:10;39.95;;;27.98;;
71104;SDS011;58760;48.716;8.962;2023-05-23T07:15:35;41.60;;;32.05;;
71104;SDS011;58760;48.716;8.962;2023-05-23T07:18:01;41.78;;;29.00;;
71104;SDS011;58760;48.716;8.962;2023-05-23T07:20:26;44.83;;;32.33;;
71104;SDS011;58760;48.716;8.962;2023-05-23T07:22:51;40.17;;;29.60;;
71104;SDS011;58760;48.716;8.962;2023-05-23T07:25:17;44.10;;;30.38;;
71104;SDS011;58760;48.716;8.962;2023-05-23T07:27:42;46.85;;;32.20;;
71104;SDS011;58760;48.716;8.962;2023-05-23T07:30:08;46.45;;;30.88;;
71104;SDS011;58760;48.716;8.962;2023-05-23T07:32:34;42.33;;;30.92;;
71104;SDS011;58760;48.716;8.962;2023-05-23T07:35:02;40.60;;;29.70;;
71104;SDS011;58760;48.716;8.962;2023-05-23T07:37:27;39.38;;;29.75;;
71104;SDS011;58760;48.716;8.962;2023-05-23T07:39:53;36.65;;;29.55;;
71104;SDS011;58760;48.716;8.962;2023-05-23T07:42:19;38.05;;;29.67;;
71104;SDS011;58760;48.716;8.962;2023-05-23T07:44:44;37.20;;;29.40;;
71104;SDS011;58760;48.716;8.962;2023-05-23T07:47:10;44.90;;;31.75;;
71104;SDS011;58760;48.716;8.962;2023-05-23T07:49:36;37.67;;;28.77;;
71104;SDS011;58760;48.716;8.962;2023-05-23T07:52:01;40.30;;;28.50;;
71104;SDS011;58760;48.716;8.962;2023-05-23T07:54:26;37.38;;;29.35;;
71104;SDS011;58760;48.716;8.962;2023-05-23T07:56:52;40.70;;;27.75;;
71104;SDS011;58760;48.716;8.962;2023-05-23T07:59:18;35.53;;;26.30;;
71104;SDS011;58760;48.716;8.962;2023-05-23T08:01:44;40.30;;;28.45;;
71104;SDS011;58760;48.716;8.962;2023-05-23T08:04:10;40.42;;;28.10;;
71104;SDS011;58760;48.716;8.962;2023-05-23T08:06:35;38.55;;;28.08;;
71104;SDS011;58760;48.716;8.962;2023-05-23T08:09:01;38.15;;;28.42;;
71104;SDS011;58760;48.716;8.962;2023-05-23T08:11:27;36.33;;;27.27;;
71104;SDS011;58760;48.716;8.962;2023-05-23T08:13:54;36.58;;;27.30;;
71104;SDS011;58760;48.716;8.962;2023-05-23T08:16:20;34.28;;;25.20;;
71104;SDS011;58760;48.716;8.962;2023-05-23T08:18:45;34.60;;;24.10;;
71104;SDS011;58760;48.716;8.962;2023-05-23T08:21:10;35.22;;;23.65;;
71104;SDS011;58760;48.716;8.962;2023-05-23T08:23:36;30.73;;;22.52;;
71104;SDS011;58760;48.716;8.962;2023-05-23T08:26:01;31.95;;;21.92;;
71104;SDS011;58760;48.716;8.962;2023-05-23T08:28:27;32.10;;;21.55;;
71104;SDS011;58760;48.716;8.962;2023-05-23T08:30:52;32.33;;;22.00;;
71104;SDS011;58760;48.716;8.962;2023-05-23T08:33:18;30.63;;;20.75;;
71104;SDS011;58760;48.716;8.962;2023-05-23T08:35:43;29.80;;;20.25;;
71104;SDS011;58760;48.716;8.962;2023-05-23T08:38:09;30.27;;;21.52;;
71104;SDS011;58760;48.716;8.962;2023-05-23T08:40:34;27.40;;;20.63;;
71104;SDS011;58760;48.716;8.962;2023-05-23T08:43:01;25.50;;;19.27;;
71104;SDS011;58760;48.716;8.962;2023-05-23T08:45:26;26.38;;;20.80;;
71104;SDS011;58760;48.716;8.962;2023-05-23T08:47:55;30.58;;;21.35;;
71104;SDS011;58760;48.716;8.962;2023-05-23T08:50:24;29.92;;;20.27;;
71104;SDS011;58760;48.716;8.962;2023-05-23T08:52:55;27.55;;;20.38;;
71104;SDS011;58760;48.716;8.962;2023-05-23T08:55:23;31.85;;;21.05;;
71104;SDS011;58760;48.716;8.962;2023-05-23T08:57:52;26.98;;;19.83;;
71104;SDS011;58760;48.716;8.962;2023-05-23T09:00:21;29.00;;;19.25;;
71104;SDS011;58760;48.716;8.962;2023-05-23T09:02:48;27.85;;;18.98;;
71104;SDS011;58760;48.716;8.962;2023-05-23T09:05:14;28.20;;;19.35;;
71104;SDS011;58760;48.716;8.962;2023-05-23T09:07:39;26.20;;;18.25;;
71104;SDS011;58760;48.716;8.962;2023-05-23T09:10:08;25.65;;;19.48;;
71104;SDS011;58760;48.716;8.962;2023-05-23T09:12:35;26.17;;;17.73;;
71104;SDS011;58760;48.716;8.962;2023-05-23T09:15:04;25.10;;;19.40;;
71104;SDS011;58760;48.716;8.962;2023-05-23T09:17:33;25.52;;;17.38;;
71104;SDS011;58760;48.716;8.962;2023-05-23T09:20:00;24.90;;;17.27;;
71104;SDS011;58760;48.716;8.962;2023-05-23T09:22:36;26.60;;;17.58;;
71104;SDS011;58760;48.716;8.962;2023-05-23T09:25:01;23.17;;;15.75;;
71104;SDS011;58760;48.716;8.962;2023-05-23T09:27:30;21.98;;;14.18;;
71104;SDS011;58760;48.716;8.962;2023-05-23T09:29:55;23.05;;;14.98;;
71104;SDS011;58760;48.716;8.962;2023-05-23T09:32:21;24.00;;;14.40;;
71104;SDS011;58760;48.716;8.962;2023-05-23T09:34:53;21.73;;;14.75;;
71104;SDS011;58760;48.716;8.962;2023-05-23T09:37:20;21.77;;;13.25;;
71104;SDS011;58760;48.716;8.962;2023-05-23T09:39:48;20.83;;;14.52;;
71104;SDS011;58760;48.716;8.962;2023-05-23T09:42:19;18.13;;;13.20;;
71104;SDS011;58760;48.716;8.962;2023-05-23T09:44:45;19.48;;;13.98;;
71104;SDS011;58760;48.716;8.962;2023-05-23T09:47:11;19.98;;;13.13;;
71104;SDS011;58760;48.716;8.962;2023-05-23T09:49:39;21.20;;;13.95;;
71104;SDS011;58760;48.716;8.962;2023-05-23T09:52:05;20.48;;;14.45;;
71104;SDS011;58760;48.716;8.962;2023-05-23T09:54:31;18.88;;;12.65;;
71104;SDS011;58760;48.716;8.962;2023-05-23T09:56:57;17.70;;;12.50;;
71104;SDS011;58760;48.716;8.962;2023-05-23T09:59:26;18.60;;;12.70;;
71104;SDS011;58760;48.716;8.962;2023-05-23T10:01:55;18.17;;;12.80;;
71104;SDS011;58760;48.716;8.962;2023-05-23T10:04:21;17.80;;;12.82;;
71104;SDS011;58760;48.716;8.962;2023-05-23T10:06:53;18.38;;;11.63;;
71104;SDS011;58760;48.716;8.962;2023-05-23T10:09:24;18.20;;;12.50;;
71104;SDS011;58760;48.716;8.962;2023-05-23T10:14:44;18.02;;;11.68;;
71104;SDS011;58760;48.716;8.962;2023-05-23T10:17:18;22.48;;;12.30;;
71104;SDS011;58760;48.716;8.962;2023-05-23T10:19:57;20.48;;;11.80;;
71104;SDS011;58760;48.716;8.962;2023-05-23T10:22:34;20.95;;;13.10;;
71104;SDS011;58760;48.716;8.962;2023-05-23T10:25:01;15.73;;;11.07;;
71104;SDS011;58760;48.716;8.962;2023-05-23T10:27:29;17.65;;;12.02;;
71104;SDS011;58760;48.716;8.962;2023-05-23T10:32:22;13.75;;;10.27;;
71104;SDS011;58760;48.716;8.962;2023-05-23T10:37:41;19.20;;;9.52;;
71104;SDS011;58760;48.716;8.962;2023-05-23T10:40:20;12.10;;;8.55;;
71104;SDS011;58760;48.716;8.962;2023-05-23T10:45:47;16.08;;;9.73;;
71104;SDS011;58760;48.716;8.962;2023-05-23T10:53:36;18.63;;;11.32;;
71104;SDS011;58760;48.716;8.962;2023-05-23T10:56:06;17.45;;;9.80;;
71104;SDS011;58760;48.716;8.962;2023-05-23T10:58:33;16.30;;;10.60;;
71104;SDS011;58760;48.716;8.962;2023-05-23T11:01:07;15.48;;;10.85;;
71104;SDS011;58760;48.716;8.962;2023-05-23T11:03:52;16.75;;;12.23;;
71104;SDS011;58760;48.716;8.962;2023-05-23T11:09:10;19.77;;;11.95;;
71104;SDS011;58760;48.716;8.962;2023-05-23T11:16:56;16.10;;;9.80;;
71104;SDS011;58760;48.716;8.962;2023-05-23T11:19:23;15.00;;;10.73;;
71104;SDS011;58760;48.716;8.962;2023-05-23T11:21:52;12.90;;;9.38;;
71104;SDS011;58760;48.716;8.962;2023-05-23T11:24:19;14.18;;;10.18;;
71104;SDS011;58760;48.716;8.962;2023-05-23T11:26:54;17.88;;;9.85;;
71104;SDS011;58760;48.716;8.962;2023-05-23T11:29:27;17.27;;;10.27;;
71104;SDS011;58760;48.716;8.962;2023-05-23T11:31:53;12.50;;;8.95;;
71104;SDS011;58760;48.716;8.962;2023-05-23T11:34:19;11.93;;;8.55;;
71104;SDS011;58760;48.716;8.962;2023-05-23T11:36:45;14.63;;;9.00;;
71104;SDS011;58760;48.716;8.962;2023-05-23T11:39:11;16.85;;;8.75;;
71104;SDS011;58760;48.716;8.962;2023-05-23T11:41:37;15.95;;;8.80;;
71104;SDS011;58760;48.716;8.962;2023-05-23T11:44:12;12.70;;;8.13;;
71104;SDS011;58760;48.716;8.962;2023-05-23T11:46:38;9.75;;;7.25;;
71104;SDS011;58760;48.716;8.962;2023-05-23T11:49:10;11.25;;;8.10;;
71104;SDS011;58760;48.716;8.962;2023-05-23T11:51:36;10.75;;;7.85;;
71104;SDS011;58760;48.716;8.962;2023-05-23T11:54:02;12.40;;;8.10;;
71104;SDS011;58760;48.716;8.962;2023-05-23T11:56:27;10.02;;;6.82;;
71104;SDS011;58760;48.716;8.962;2023-05-23T11:58:53;14.27;;;7.53;;
71104;SDS011;58760;48.716;8.962;2023-05-23T12:01:21;10.25;;;7.40;;
71104;SDS011;58760;48.716;8.962;2023-05-23T12:03:54;10.40;;;6.78;;
71104;SDS011;58760;48.716;8.962;2023-05-23T12:06:20;8.48;;;6.10;;
71104;SDS011;58760;48.716;8.962;2023-05-23T12:08:48;12.50;;;7.15;;
71104;SDS011;58760;48.716;8.962;2023-05-23T12:11:15;10.93;;;7.32;;
71104;SDS011;58760;48.716;8.962;2023-05-23T12:13:41;11.13;;;6.95;;
71104;SDS011;58760;48.716;8.962;2023-05-23T12:16:07;10.90;;;6.72;;
71104;SDS011;58760;48.716;8.962;2023-05-23T12:18:33;11.40;;;7.68;;
71104;SDS011;58760;48.716;8.962;2023-05-23T12:21:06;11.38;;;6.60;;
71104;SDS011;58760;48.716;8.962;2023-05-23T12:23:34;12.57;;;6.38;;
71104;SDS011;58760;48.716;8.962;2023-05-23T12:26:00;9.70;;;5.65;;
71104;SDS011;58760;48.716;8.962;2023-05-23T12:31:11;10.40;;;5.45;;
71104;SDS011;58760;48.716;8.962;2023-05-23T12:33:44;9.98;;;5.43;;
71104;SDS011;58760;48.716;8.962;2023-05-23T12:36:11;9.35;;;4.50;;
71104;SDS011;58760;48.716;8.962;2023-05-23T12:41:11;9.52;;;4.78;;
71104;SDS011;58760;48.716;8.962;2023-05-23T12:43:47;6.95;;;4.43;;
71104;SDS011;58760;48.716;8.962;2023-05-23T12:46:14;12.90;;;4.55;;
71104;SDS011;58760;48.716;8.962;2023-05-23T12:48:40;8.43;;;4.20;;
71104;SDS011;58760;48.716;8.962;2023-05-23T12:51:05;6.72;;;4.13;;
71104;SDS011;58760;48.716;8.962;2023-05-23T12:53:31;9.93;;;4.03;;
71104;SDS011;58760;48.716;8.962;2023-05-23T12:55:56;9.02;;;4.40;;
71104;SDS011;58760;48.716;8.962;2023-05-23T12:58:21;8.65;;;4.20;;
71104;SDS011;58760;48.716;8.962;2023-05-23T13:00:47;7.53;;;4.65;;
71104;SDS011;58760;48.716;8.962;2023-05-23T13:03:12;6.15;;;3.88;;
71104;SDS011;58760;48.716;8.962;2023-05-23T13:05:38;8.32;;;4.35;;
71104;SDS011;58760;48.716;8.962;2023-05-23T13:08:03;13.70;;;4.20;;
71104;SDS011;58760;48.716;8.962;2023-05-23T13:10:29;8.52;;;3.97;;
71104;SDS011;58760;48.716;8.962;2023-05-23T13:12:54;8.45;;;4.20;;
71104;SDS011;58760;48.716;8.962;2023-05-23T13:15:20;6.75;;;3.67;;
71104;SDS011;58760;48.716;8.962;2023-05-23T13:20:11;6.10;;;3.42;;
71104;SDS011;58760;48.716;8.962;2023-05-23T13:22:38;6.32;;;2.80;;
71104;SDS011;58760;48.716;8.962;2023-05-23T13:27:29;6.78;;;3.35;;
71104;SDS011;58760;48.716;8.962;2023-05-23T13:32:20;8.27;;;3.53;;
71104;SDS011;58760;48.716;8.962;2023-05-23T13:37:10;8.63;;;4.00;;
71104;SDS011;58760;48.716;8.962;2023-05-23T13:39:35;7.80;;;3.90;;
71104;SDS011;58760;48.716;8.962;2023-05-23T13:42:01;7.13;;;3.95;;
71104;SDS011;58760;48.716;8.962;2023-05-23T13:44:26;8.35;;;3.78;;
71104;SDS011;58760;48.716;8.962;2023-05-23T13:46:52;8.18;;;3.70;;
71104;SDS011;58760;48.716;8.962;2023-05-23T13:49:18;6.05;;;3.75;;
71104;SDS011;58760;48.716;8.962;2023-05-23T13:51:44;14.57;;;4.03;;
71104;SDS011;58760;48.716;8.962;2023-05-23T13:54:09;9.45;;;3.92;;
71104;SDS011;58760;48.716;8.962;2023-05-23T13:56:34;8.02;;;4.15;;
71104;SDS011;58760;48.716;8.962;2023-05-23T13:59:02;9.40;;;4.18;;
71104;SDS011;58760;48.716;8.962;2023-05-23T14:01:27;9.77;;;3.80;;
71104;SDS011;58760;48.716;8.962;2023-05-23T14:03:53;8.32;;;3.70;;
71104;SDS011;58760;48.716;8.962;2023-05-23T14:06:19;6.80;;;3.25;;
71104;SDS011;58760;48.716;8.962;2023-05-23T14:08:44;7.78;;;3.72;;
71104;SDS011;58760;48.716;8.962;2023-05-23T14:11:10;9.98;;;3.50;;
71104;SDS011;58760;48.716;8.962;2023-05-23T14:13:35;9.60;;;3.58;;
71104;SDS011;58760;48.716;8.962;2023-05-23T14:16:01;5.63;;;2.80;;
71104;SDS011;58760;48.716;8.962;2023-05-23T14:18:26;7.30;;;3.60;;
71104;SDS011;58760;48.716;8.962;2023-05-23T14:20:51;5.47;;;3.40;;
71104;SDS011;58760;48.716;8.962;2023-05-23T14:23:17;7.15;;;3.53;;
71104;SDS011;58760;48.716;8.962;2023-05-23T14:25:42;7.40;;;3.83;;
71104;SDS011;58760;48.716;8.962;2023-05-23T14:28:08;7.95;;;4.32;;
71104;SDS011;58760;48.716;8.962;2023-05-23T14:30:34;8.93;;;3.88;;
71104;SDS011;58760;48.716;8.962;2023-05-23T14:32:59;6.93;;;3.90;;
71104;SDS011;58760;48.716;8.962;2023-05-23T14:35:24;9.27;;;3.72;;
71104;SDS011;58760;48.716;8.962;2023-05-23T14:37:50;7.03;;;2.90;;
71104;SDS011;58760;48.716;8.962;2023-05-23T14:40:15;6.45;;;3.15;;
71104;SDS011;58760;48.716;8.962;2023-05-23T14:42:41;5.22;;;2.60;;
71104;SDS011;58760;48.716;8.962;2023-05-23T14:45:06;5.15;;;2.40;;
71104;SDS011;58760;48.716;8.962;2023-05-23T14:49:59;6.18;;;3.00;;
71104;SDS011;58760;48.716;8.962;2023-05-23T14:52:24;6.88;;;2.80;;
71104;SDS011;58760;48.716;8.962;2023-05-23T14:54:50;6.40;;;2.97;;
71104;SDS011;58760;48.716;8.962;2023-05-23T14:57:15;7.35;;;3.42;;
71104;SDS011;58760;48.716;8.962;2023-05-23T14:59:40;8.07;;;3.75;;
71104;SDS011;58760;48.716;8.962;2023-05-23T15:02:06;7.15;;;3.58;;
71104;SDS011;58760;48.716;8.962;2023-05-23T15:04:32;5.20;;;3.00;;
71104;SDS011;58760;48.716;8.962;2023-05-23T15:06:57;5.65;;;3.20;;
71104;SDS011;58760;48.716;8.962;2023-05-23T15:09:24;6.50;;;3.42;;
71104;SDS011;58760;48.716;8.962;2023-05-23T15:11:50;6.35;;;3.35;;
71104;SDS011;58760;48.716;8.962;2023-05-23T15:14:15;6.65;;;3.88;;
71104;SDS011;58760;48.716;8.962;2023-05-23T15:16:41;6.78;;;3.55;;
71104;SDS011;58760;48.716;8.962;2023-05-23T15:19:08;7.70;;;3.50;;
71104;SDS011;58760;48.716;8.962;2023-05-23T15:21:34;7.80;;;3.95;;
71104;SDS011;58760;48.716;8.962;2023-05-23T15:24:00;7.15;;;3.80;;